Lupton, Michigan
Current Conditions -  °F | °C
As of 4:13 PM on Saturday 22 Nov 2014 (Local Time) from KOSC Reporting Station
Haze Haze  
Wind Chill: -2°   Ceiling: 300
Heat Index:   Visibility: 1.2mi
Dew Point:   Wind: 15mph
Humidity: 99%   Direction: 220°SW
Pressure: 29.83"   Gusts: NA
Location:  44.43°N, 84.03°W
Report Text: KOSC 222113Z AUTO 22013KT 1 1/4SM BR OVC003 02/02 A2983 RMK AO2 T00280027
Loading
Personal Weather Stations






























Interactive Weather Map New forecast layout! Learn more

10-Day Weather Forecast

Advertisements
Track Severe Weather on mobile